createdAt,value
2024-02-18T00:00:09.251Z,1.31
2024-02-18T00:02:36.215Z,1.27
2024-02-18T00:05:03.440Z,1.25
2024-02-18T00:07:30.088Z,1.25
2024-02-18T00:09:57.273Z,1.23
2024-02-18T00:12:25.596Z,1.23
2024-02-18T00:14:52.713Z,1.30
2024-02-18T00:17:19.169Z,1.41
2024-02-18T00:19:45.688Z,1.49
2024-02-18T00:22:12.151Z,1.59
2024-02-18T00:24:38.568Z,1.67
2024-02-18T00:27:05.233Z,1.68
2024-02-18T00:29:31.750Z,1.69
2024-02-18T00:31:58.092Z,1.65
2024-02-18T00:34:25.298Z,1.61
2024-02-18T00:36:52.651Z,1.54
2024-02-18T00:39:19.561Z,1.51
2024-02-18T00:41:46.011Z,1.48
2024-02-18T00:44:12.406Z,1.41
2024-02-18T00:46:45.359Z,1.37
2024-02-18T00:49:17.787Z,1.34
2024-02-18T00:51:44.245Z,1.27
2024-02-18T00:54:10.644Z,1.23
2024-02-18T00:56:37.167Z,1.20
2024-02-18T00:59:03.592Z,1.20
2024-02-18T01:01:30.119Z,1.20
2024-02-18T01:03:56.701Z,1.20
2024-02-18T01:06:23.143Z,1.25
2024-02-18T01:08:49.685Z,1.22
2024-02-18T01:11:16.160Z,1.16
2024-02-18T01:13:42.591Z,1.13
2024-02-18T01:16:09.065Z,1.18
2024-02-18T01:18:39.372Z,1.22
2024-02-18T01:21:05.793Z,1.19
2024-02-18T01:23:32.262Z,1.15
2024-02-18T01:25:59.225Z,1.17
2024-02-18T01:28:26.350Z,1.23
2024-02-18T01:30:53.000Z,1.29
2024-02-18T01:33:21.460Z,1.36
2024-02-18T01:35:47.882Z,1.37
2024-02-18T01:38:14.229Z,1.35
2024-02-18T01:40:41.306Z,1.42
2024-02-18T01:43:07.691Z,1.45
2024-02-18T01:45:34.164Z,1.49
2024-02-18T01:48:01.781Z,1.61
2024-02-18T01:50:30.023Z,1.64
2024-02-18T01:52:56.665Z,1.72
2024-02-18T01:55:24.594Z,1.76
2024-02-18T01:57:51.477Z,1.81
2024-02-18T02:00:19.007Z,1.91
2024-02-18T02:02:48.404Z,2.06
2024-02-18T02:05:16.738Z,2.17
2024-02-18T02:07:43.715Z,2.24
2024-02-18T02:10:13.216Z,2.25
2024-02-18T02:12:42.114Z,2.36
2024-02-18T02:15:10.358Z,2.42
2024-02-18T02:17:38.279Z,2.52
2024-02-18T02:20:12.037Z,2.56
2024-02-18T02:22:38.841Z,2.63
2024-02-18T02:25:06.067Z,2.65
2024-02-18T02:27:37.703Z,2.73
2024-02-18T02:30:05.078Z,2.76
2024-02-18T02:32:33.174Z,2.83
2024-02-18T02:34:59.792Z,2.88
2024-02-18T02:37:26.431Z,2.94
2024-02-18T02:39:52.828Z,2.97
2024-02-18T02:42:19.484Z,3.03
2024-02-18T02:44:46.030Z,3.05
2024-02-18T02:47:12.431Z,3.08
2024-02-18T02:49:39.068Z,3.08
2024-02-18T02:52:05.832Z,3.06
2024-02-18T02:54:32.809Z,3.10
2024-02-18T02:56:59.170Z,3.12
2024-02-18T02:59:25.625Z,3.10
2024-02-18T03:01:52.063Z,3.09
2024-02-18T03:04:18.662Z,3.11
2024-02-18T03:06:45.146Z,3.11
2024-02-18T03:09:13.210Z,3.12
2024-02-18T03:11:39.594Z,3.13
2024-02-18T03:14:05.990Z,3.10
2024-02-18T03:16:32.357Z,3.13
2024-02-18T03:18:58.820Z,3.15
2024-02-18T03:21:25.593Z,3.16
2024-02-18T03:23:54.360Z,3.14
2024-02-18T03:26:20.869Z,3.19
2024-02-18T03:28:47.251Z,3.21
2024-02-18T03:31:17.975Z,3.24
2024-02-18T03:33:44.393Z,3.24
2024-02-18T03:36:11.022Z,3.24
2024-02-18T03:38:37.516Z,3.29
2024-02-18T03:41:07.988Z,3.31
2024-02-18T03:43:35.234Z,3.34
2024-02-18T03:46:03.018Z,3.38
2024-02-18T03:48:29.615Z,3.39
2024-02-18T03:50:56.138Z,3.40
2024-02-18T03:53:22.589Z,3.46
2024-02-18T03:55:49.526Z,3.50
2024-02-18T03:58:16.213Z,3.49
2024-02-18T04:00:47.217Z,3.53
2024-02-18T04:03:14.603Z,3.58
2024-02-18T04:05:41.456Z,3.58
2024-02-18T04:08:07.941Z,3.57
2024-02-18T04:10:34.446Z,3.60
2024-02-18T04:13:01.019Z,3.62
2024-02-18T04:15:27.545Z,3.66
2024-02-18T04:17:55.360Z,3.71
2024-02-18T04:20:22.307Z,3.71
2024-02-18T04:22:49.247Z,3.74
2024-02-18T04:25:15.644Z,3.79
2024-02-18T04:27:42.047Z,3.82
2024-02-18T04:30:09.089Z,3.85
2024-02-18T04:32:35.549Z,3.86
2024-02-18T04:35:02.214Z,3.90
2024-02-18T04:37:28.682Z,3.90
2024-02-18T04:39:55.108Z,3.95
2024-02-18T04:42:21.525Z,3.97
2024-02-18T04:44:47.941Z,3.98
2024-02-18T04:47:14.473Z,3.97
2024-02-18T04:49:40.946Z,4.02
2024-02-18T04:52:07.637Z,4.03
2024-02-18T04:54:40.021Z,4.03
2024-02-18T04:57:07.643Z,4.06
2024-02-18T04:59:36.932Z,4.02
2024-02-18T05:02:04.222Z,4.06
2024-02-18T05:04:32.684Z,4.09
2024-02-18T05:06:59.801Z,4.13
2024-02-18T05:09:26.390Z,4.15
2024-02-18T05:11:52.762Z,4.12
2024-02-18T05:14:19.837Z,4.15
2024-02-18T05:16:46.576Z,4.17
2024-02-18T05:19:13.191Z,4.19
2024-02-18T05:21:40.415Z,4.18
2024-02-18T05:24:07.124Z,4.18
2024-02-18T05:26:33.514Z,4.16
2024-02-18T05:28:59.871Z,4.20
2024-02-18T05:31:26.672Z,4.22
2024-02-18T05:33:53.488Z,4.22
2024-02-18T05:36:21.342Z,4.24
2024-02-18T05:38:47.765Z,4.21
2024-02-18T05:41:14.193Z,4.23
2024-02-18T05:43:40.556Z,4.23
2024-02-18T05:46:10.903Z,4.23
2024-02-18T05:48:40.993Z,4.24
2024-02-18T05:51:07.948Z,4.29
2024-02-18T05:53:34.968Z,4.31
2024-02-18T05:56:01.489Z,4.26
2024-02-18T05:58:27.842Z,4.20
2024-02-18T06:00:54.366Z,4.17
2024-02-18T06:03:21.881Z,4.15
2024-02-18T06:05:48.468Z,4.12
2024-02-18T06:08:14.920Z,4.11
2024-02-18T06:10:41.728Z,4.09
2024-02-18T06:13:08.426Z,4.07
2024-02-18T06:15:34.916Z,4.04
2024-02-18T06:18:01.732Z,4.02
2024-02-18T06:20:31.269Z,4.01
2024-02-18T06:22:57.745Z,3.98
2024-02-18T06:25:24.388Z,4.02
2024-02-18T06:27:51.148Z,4.02
2024-02-18T06:30:17.789Z,4.05
2024-02-18T06:32:44.184Z,4.06
2024-02-18T06:35:10.652Z,4.08
2024-02-18T06:37:37.444Z,4.11
2024-02-18T06:40:04.236Z,4.12
2024-02-18T06:42:31.433Z,4.12
2024-02-18T06:44:57.832Z,4.18
2024-02-18T06:47:24.208Z,4.22
2024-02-18T06:49:50.741Z,4.26
2024-02-18T06:52:17.252Z,4.28
2024-02-18T06:54:44.515Z,4.32
2024-02-18T06:57:10.917Z,4.35
2024-02-18T06:59:37.308Z,4.40
2024-02-18T07:02:03.781Z,4.41
2024-02-18T07:04:30.722Z,4.43
2024-02-18T07:06:57.212Z,4.42
2024-02-18T07:09:34.091Z,4.47
2024-02-18T07:12:00.592Z,4.53
2024-02-18T07:14:27.001Z,4.55
2024-02-18T07:16:54.210Z,4.58
2024-02-18T07:19:24.149Z,4.54
2024-02-18T07:22:07.786Z,4.62
2024-02-18T07:24:34.639Z,4.60
2024-02-18T07:27:01.090Z,4.64
2024-02-18T07:29:27.452Z,4.68
2024-02-18T07:31:53.824Z,4.71
2024-02-18T07:34:20.328Z,4.70
2024-02-18T07:36:48.058Z,4.78
2024-02-18T07:39:14.483Z,4.80
2024-02-18T07:41:40.856Z,4.84
2024-02-18T07:44:07.550Z,4.86
2024-02-18T07:46:34.113Z,4.89
2024-02-18T07:49:00.632Z,4.93
2024-02-18T07:51:27.829Z,4.97
2024-02-18T07:53:56.497Z,4.99
2024-02-18T07:56:23.156Z,5.04
2024-02-18T07:58:49.617Z,5.05
2024-02-18T08:01:16.199Z,5.12
2024-02-18T08:03:44.469Z,5.14
2024-02-18T08:06:11.125Z,5.17
2024-02-18T08:08:38.710Z,5.15
2024-02-18T08:11:05.104Z,5.19
2024-02-18T08:13:32.925Z,5.16
2024-02-18T08:15:59.927Z,5.15
2024-02-18T08:18:26.666Z,5.12
2024-02-18T08:20:54.272Z,5.10
2024-02-18T08:23:20.760Z,5.08
2024-02-18T08:25:47.445Z,5.10
2024-02-18T08:28:13.842Z,5.09
2024-02-18T08:30:40.280Z,5.06
2024-02-18T08:33:07.143Z,5.09
2024-02-18T08:35:34.005Z,5.12
2024-02-18T08:38:00.382Z,5.20
2024-02-18T08:40:27.117Z,5.22
2024-02-18T08:42:54.232Z,5.27
2024-02-18T08:45:20.729Z,5.30
2024-02-18T08:47:47.167Z,5.35
2024-02-18T08:50:13.590Z,5.41
2024-02-18T08:52:39.992Z,5.42
2024-02-18T08:55:06.856Z,5.48
2024-02-18T08:57:34.684Z,5.50
2024-02-18T09:00:03.552Z,5.56
2024-02-18T09:02:29.965Z,5.63
2024-02-18T09:05:00.668Z,5.67
2024-02-18T09:07:29.456Z,5.71
2024-02-18T09:09:55.977Z,5.76
2024-02-18T09:12:22.385Z,5.80
2024-02-18T09:14:48.730Z,5.84
2024-02-18T09:17:18.397Z,5.84
2024-02-18T09:19:48.321Z,5.93
2024-02-18T09:22:15.336Z,5.98
2024-02-18T09:24:45.374Z,6.01
2024-02-18T09:27:12.031Z,6.03
2024-02-18T09:29:38.506Z,6.02
2024-02-18T09:32:05.184Z,6.03
2024-02-18T09:34:32.753Z,6.06
2024-02-18T09:36:59.355Z,6.07
2024-02-18T09:39:25.787Z,6.08
2024-02-18T09:41:52.313Z,6.08
2024-02-18T09:44:22.555Z,6.10
2024-02-18T09:46:50.453Z,6.10
2024-02-18T09:49:19.391Z,6.12
2024-02-18T09:51:46.058Z,6.15
2024-02-18T09:54:12.914Z,6.16
2024-02-18T09:56:39.313Z,6.18
2024-02-18T09:59:05.718Z,6.24
2024-02-18T10:01:33.691Z,6.30
2024-02-18T10:04:00.583Z,6.35
2024-02-18T10:06:27.162Z,6.39
2024-02-18T10:08:56.439Z,6.47
2024-02-18T10:11:23.365Z,6.50
2024-02-18T10:13:49.821Z,6.53
2024-02-18T10:16:16.321Z,6.57
2024-02-18T10:18:43.434Z,6.63
2024-02-18T10:21:12.362Z,6.69
2024-02-18T10:23:40.359Z,6.73
2024-02-18T10:26:08.723Z,6.74
2024-02-18T10:28:40.270Z,6.71
2024-02-18T10:31:09.123Z,6.74
2024-02-18T10:33:35.820Z,6.76
2024-02-18T10:36:08.856Z,6.75
2024-02-18T10:38:58.421Z,6.76
2024-02-18T10:41:36.428Z,6.80
2024-02-18T10:44:07.497Z,6.85
2024-02-18T10:46:35.057Z,6.91
2024-02-18T10:49:06.287Z,6.94
2024-02-18T10:51:35.603Z,6.95
2024-02-18T10:54:20.721Z,6.96
2024-02-18T10:56:47.359Z,6.99
2024-02-18T10:59:13.847Z,6.99
2024-02-18T11:01:45.347Z,7.00
2024-02-18T11:04:12.189Z,7.03
2024-02-18T11:06:39.079Z,7.02
2024-02-18T11:09:09.346Z,7.05
2024-02-18T11:11:36.902Z,7.12
2024-02-18T11:14:04.969Z,7.21
2024-02-18T11:16:34.858Z,7.24
2024-02-18T11:19:02.750Z,7.31
2024-02-18T11:21:29.662Z,7.37
2024-02-18T11:23:56.473Z,7.40
2024-02-18T11:26:23.268Z,7.40
2024-02-18T11:28:49.895Z,7.43
2024-02-18T11:31:20.798Z,7.46
2024-02-18T11:33:47.461Z,7.45
2024-02-18T11:36:14.387Z,7.45
2024-02-18T11:38:47.587Z,7.49
2024-02-18T11:41:18.508Z,7.49
2024-02-18T11:43:44.928Z,7.47
2024-02-18T11:46:25.233Z,7.49
2024-02-18T11:48:52.080Z,7.52
2024-02-18T11:51:18.834Z,7.53
2024-02-18T11:53:45.419Z,7.57
2024-02-18T11:56:13.526Z,7.56
2024-02-18T11:58:40.369Z,7.56
2024-02-18T12:01:07.389Z,7.59
2024-02-18T12:03:34.374Z,7.59
2024-02-18T12:06:01.843Z,7.61
2024-02-18T12:08:29.610Z,7.67
2024-02-18T12:10:56.309Z,7.71
2024-02-18T12:13:23.936Z,7.74
2024-02-18T12:15:51.040Z,7.74
2024-02-18T12:18:18.430Z,7.74
2024-02-18T12:20:48.917Z,7.72
2024-02-18T12:23:16.039Z,7.74
2024-02-18T12:25:42.549Z,7.74
2024-02-18T12:28:11.950Z,7.76
2024-02-18T12:30:39.072Z,7.75
2024-02-18T12:33:05.929Z,7.76
2024-02-18T12:35:34.424Z,7.76
2024-02-18T12:38:01.495Z,7.75
2024-02-18T12:40:28.992Z,7.75
2024-02-18T12:45:42.782Z,7.78
2024-02-18T12:48:13.956Z,7.78
2024-02-18T12:50:40.846Z,7.77
2024-02-18T12:53:07.256Z,7.74
2024-02-18T12:55:35.928Z,7.76
2024-02-18T12:58:02.857Z,7.77
2024-02-18T13:00:30.579Z,7.79
2024-02-18T13:02:57.061Z,7.79
2024-02-18T13:05:24.676Z,7.78
2024-02-18T13:07:52.519Z,7.78
2024-02-18T13:10:18.878Z,7.79
2024-02-18T13:12:45.242Z,7.79
2024-02-18T13:15:11.882Z,7.80
2024-02-18T13:17:38.319Z,7.78
2024-02-18T13:20:05.722Z,7.80
2024-02-18T13:22:32.089Z,7.80
2024-02-18T13:24:58.481Z,7.81
2024-02-18T13:27:24.957Z,7.84
2024-02-18T13:29:51.700Z,7.84
2024-02-18T13:32:18.063Z,7.88
2024-02-18T13:34:44.538Z,7.88
2024-02-18T13:37:11.231Z,7.91
2024-02-18T13:39:37.899Z,7.90
2024-02-18T13:42:04.457Z,7.89
2024-02-18T13:44:32.743Z,7.90
2024-02-18T13:47:01.251Z,7.93
2024-02-18T13:49:27.671Z,7.98
2024-02-18T13:51:54.184Z,7.98
2024-02-18T13:54:20.624Z,7.98
2024-02-18T13:56:47.001Z,8.00
2024-02-18T13:59:13.373Z,8.01
2024-02-18T14:01:39.891Z,8.02
2024-02-18T14:04:06.353Z,8.00
2024-02-18T14:06:33.269Z,8.01
2024-02-18T14:09:01.841Z,8.02
2024-02-18T14:11:28.265Z,8.04
2024-02-18T14:13:54.617Z,8.05
2024-02-18T14:16:25.848Z,8.03
2024-02-18T14:18:52.988Z,8.04
2024-02-18T14:21:19.481Z,8.04
2024-02-18T14:23:45.829Z,8.04
2024-02-18T14:26:12.225Z,8.06
2024-02-18T14:28:38.596Z,8.05
2024-02-18T14:31:05.159Z,8.04
2024-02-18T14:33:31.774Z,8.05
2024-02-18T14:35:58.310Z,8.06
2024-02-18T14:38:29.905Z,8.05
2024-02-18T14:40:57.673Z,8.03
2024-02-18T14:43:24.060Z,8.01
2024-02-18T14:45:50.557Z,7.99
2024-02-18T14:48:17.113Z,8.01
2024-02-18T14:50:45.884Z,7.96
2024-02-18T14:53:12.379Z,7.97
2024-02-18T14:55:40.187Z,7.93
2024-02-18T14:58:06.957Z,7.91
2024-02-18T15:00:33.552Z,7.91
2024-02-18T15:02:59.991Z,7.88
2024-02-18T15:05:27.473Z,7.87
2024-02-18T15:07:54.030Z,7.85
2024-02-18T15:10:20.787Z,7.85
2024-02-18T15:12:50.236Z,7.85
2024-02-18T15:15:17.311Z,7.86
2024-02-18T15:17:43.757Z,7.84
2024-02-18T15:20:10.588Z,7.81
2024-02-18T15:22:38.631Z,7.81
2024-02-18T15:25:05.685Z,7.80
2024-02-18T15:27:32.199Z,7.79
2024-02-18T15:29:58.698Z,7.80
2024-02-18T15:32:25.430Z,7.80
2024-02-18T15:34:51.937Z,7.75
2024-02-18T15:37:18.517Z,7.75
2024-02-18T15:39:46.053Z,7.74
2024-02-18T15:42:12.594Z,7.73
2024-02-18T15:44:39.550Z,7.71
2024-02-18T15:47:06.213Z,7.71
2024-02-18T15:49:32.866Z,7.70
2024-02-18T15:52:00.612Z,7.70
2024-02-18T15:54:27.324Z,7.67
2024-02-18T15:56:53.788Z,7.66
2024-02-18T15:59:20.214Z,7.68
2024-02-18T16:01:46.843Z,7.67
2024-02-18T16:04:13.637Z,7.66
2024-02-18T16:06:40.566Z,7.66
2024-02-18T16:09:10.050Z,7.65
2024-02-18T16:11:39.539Z,7.65
2024-02-18T16:14:06.089Z,7.64
2024-02-18T16:16:32.597Z,7.63
2024-02-18T16:18:59.365Z,7.61
2024-02-18T16:21:26.135Z,7.60
2024-02-18T16:23:56.234Z,7.58
2024-02-18T16:26:24.349Z,7.58
2024-02-18T16:28:50.876Z,7.59
2024-02-18T16:31:17.609Z,7.57
2024-02-18T16:33:44.214Z,7.56
2024-02-18T16:36:10.710Z,7.56
2024-02-18T16:38:37.671Z,7.56
2024-02-18T16:41:04.628Z,7.57
2024-02-18T16:43:31.141Z,7.53
2024-02-18T16:46:01.895Z,7.54
2024-02-18T16:48:31.850Z,7.54
2024-02-18T16:50:58.476Z,7.55
2024-02-18T16:53:24.934Z,7.55
2024-02-18T16:55:53.339Z,7.58
2024-02-18T16:58:20.115Z,7.58
2024-02-18T17:00:46.689Z,7.58
2024-02-18T17:03:13.215Z,7.58
2024-02-18T17:05:39.834Z,7.58
2024-02-18T17:08:06.544Z,7.59
2024-02-18T17:10:33.153Z,7.58
2024-02-18T17:12:59.661Z,7.59
2024-02-18T17:15:26.125Z,7.59
2024-02-18T17:17:53.468Z,7.60
2024-02-18T17:20:20.072Z,7.60
2024-02-18T17:22:47.185Z,7.58
2024-02-18T17:25:15.094Z,7.56
2024-02-18T17:27:41.714Z,7.54
2024-02-18T17:30:08.412Z,7.54
2024-02-18T17:32:34.897Z,7.53
2024-02-18T17:35:05.347Z,7.53
2024-02-18T17:37:32.241Z,7.52
2024-02-18T17:39:58.768Z,7.53
2024-02-18T17:42:25.176Z,7.53
2024-02-18T17:44:53.057Z,7.54
2024-02-18T17:47:19.814Z,7.54
2024-02-18T17:49:46.412Z,7.56
2024-02-18T17:52:13.187Z,7.54
2024-02-18T17:54:39.786Z,7.54
2024-02-18T17:57:06.471Z,7.56
2024-02-18T17:59:32.885Z,7.57
2024-02-18T18:01:59.395Z,7.56
2024-02-18T18:04:25.950Z,7.55
2024-02-18T18:06:52.536Z,7.54
2024-02-18T18:09:18.955Z,7.53
2024-02-18T18:11:45.364Z,7.48
2024-02-18T18:14:11.706Z,7.46
2024-02-18T18:16:38.109Z,7.47
2024-02-18T18:19:08.817Z,7.48
2024-02-18T18:21:35.758Z,7.45
2024-02-18T18:24:04.868Z,7.45
2024-02-18T18:26:31.834Z,7.43
2024-02-18T18:28:58.412Z,7.41
2024-02-18T18:31:25.195Z,7.41
2024-02-18T18:33:51.791Z,7.39
2024-02-18T18:36:18.354Z,7.37
2024-02-18T18:38:44.711Z,7.37
2024-02-18T18:41:11.199Z,7.37
2024-02-18T18:43:37.649Z,7.37
2024-02-18T18:46:04.203Z,7.35
2024-02-18T18:48:32.664Z,7.33
2024-02-18T18:50:59.313Z,7.32
2024-02-18T18:53:25.979Z,7.29
2024-02-18T18:55:52.455Z,7.27
2024-02-18T18:58:19.026Z,7.27
2024-02-18T19:00:45.657Z,7.27
2024-02-18T19:03:12.096Z,7.26
2024-02-18T19:05:40.192Z,7.26
2024-02-18T19:08:06.741Z,7.26
2024-02-18T19:10:35.670Z,7.25
2024-02-18T19:13:02.941Z,7.25
2024-02-18T19:15:29.880Z,7.27
2024-02-18T19:17:58.914Z,7.26
2024-02-18T19:20:27.157Z,7.27
2024-02-18T19:22:54.105Z,7.27
2024-02-18T19:25:20.642Z,7.28
2024-02-18T19:27:47.159Z,7.28
2024-02-18T19:30:17.126Z,7.29
2024-02-18T19:32:43.879Z,7.29
2024-02-18T19:35:10.576Z,7.28
2024-02-18T19:37:37.106Z,7.25
2024-02-18T19:40:05.899Z,7.24
2024-02-18T19:42:33.445Z,7.21
2024-02-18T19:45:00.470Z,7.20
2024-02-18T19:47:28.116Z,7.21
2024-02-18T19:49:54.898Z,7.21
2024-02-18T19:52:21.406Z,7.19
2024-02-18T19:54:48.063Z,7.17
2024-02-18T19:57:14.521Z,7.17
2024-02-18T19:59:46.820Z,7.15
2024-02-18T20:02:14.136Z,7.14
2024-02-18T20:04:40.798Z,7.12
2024-02-18T20:07:08.356Z,7.10
2024-02-18T20:09:36.470Z,7.09
2024-02-18T20:12:03.846Z,7.08
2024-02-18T20:14:30.239Z,7.08
2024-02-18T20:16:56.718Z,7.07
2024-02-18T20:19:23.204Z,7.06
2024-02-18T20:21:49.828Z,7.06
2024-02-18T20:24:16.233Z,7.02
2024-02-18T20:26:42.613Z,6.99
2024-02-18T20:29:09.162Z,6.98
2024-02-18T20:31:35.537Z,6.97
2024-02-18T20:34:02.263Z,6.97
2024-02-18T20:36:29.061Z,6.97
2024-02-18T20:38:56.813Z,6.96
2024-02-18T20:41:23.454Z,6.95
2024-02-18T20:43:49.893Z,6.93
2024-02-18T20:46:19.718Z,6.92
2024-02-18T20:48:47.092Z,6.91
2024-02-18T20:51:15.033Z,6.90
2024-02-18T20:53:42.500Z,6.89
2024-02-18T20:56:09.033Z,6.87
2024-02-18T20:58:37.981Z,6.84
2024-02-18T21:01:06.378Z,6.82
2024-02-18T21:03:32.938Z,6.79
2024-02-18T21:05:59.548Z,6.78
2024-02-18T21:08:28.205Z,6.75
2024-02-18T21:10:56.564Z,6.76
2024-02-18T21:13:23.138Z,6.78
2024-02-18T21:15:49.686Z,6.78
2024-02-18T21:18:16.155Z,6.78
2024-02-18T21:20:42.665Z,6.80
2024-02-18T21:23:09.111Z,6.78
2024-02-18T21:25:35.742Z,6.76
2024-02-18T21:28:04.249Z,6.77
2024-02-18T21:30:30.700Z,6.78
2024-02-18T21:32:57.223Z,6.78
2024-02-18T21:35:24.751Z,6.78
2024-02-18T21:37:51.382Z,6.80
2024-02-18T21:40:17.847Z,6.80
2024-02-18T21:42:44.404Z,6.81
2024-02-18T21:45:10.878Z,6.79
2024-02-18T21:47:37.319Z,6.79
2024-02-18T21:50:03.921Z,6.77
2024-02-18T21:52:30.344Z,6.76
2024-02-18T21:54:57.019Z,6.75
2024-02-18T21:57:23.577Z,6.74
2024-02-18T21:59:50.146Z,6.74
2024-02-18T22:02:16.632Z,6.75
2024-02-18T22:04:43.193Z,6.75
2024-02-18T22:07:16.894Z,6.76
2024-02-18T22:09:45.587Z,6.77
2024-02-18T22:12:12.383Z,6.77
2024-02-18T22:14:38.878Z,6.76
2024-02-18T22:17:07.269Z,6.79
2024-02-18T22:19:34.036Z,6.80
2024-02-18T22:22:00.694Z,6.80
2024-02-18T22:24:28.334Z,6.81
2024-02-18T22:26:54.740Z,6.82
2024-02-18T22:29:21.099Z,6.81
2024-02-18T22:31:47.476Z,6.81
2024-02-18T22:34:14.245Z,6.83
2024-02-18T22:36:40.909Z,6.84
2024-02-18T22:39:07.332Z,6.85
2024-02-18T22:41:33.986Z,6.87
2024-02-18T22:44:00.439Z,6.88
2024-02-18T22:46:26.901Z,6.88
2024-02-18T22:48:53.492Z,6.87
2024-02-18T22:51:20.108Z,6.85
2024-02-18T22:53:46.623Z,6.86
2024-02-18T22:56:13.027Z,6.86
2024-02-18T22:58:40.104Z,6.84
2024-02-18T23:01:06.752Z,6.83
2024-02-18T23:03:33.671Z,6.83
2024-02-18T23:06:00.278Z,6.84
2024-02-18T23:08:26.740Z,6.84
2024-02-18T23:10:53.342Z,6.84
2024-02-18T23:13:19.881Z,6.85
2024-02-18T23:15:46.286Z,6.87
2024-02-18T23:18:12.878Z,6.88
2024-02-18T23:20:40.185Z,6.89
2024-02-18T23:23:07.662Z,6.91
2024-02-18T23:25:34.202Z,6.93
2024-02-18T23:28:00.733Z,6.95
2024-02-18T23:30:27.153Z,6.98
2024-02-18T23:32:53.752Z,7.00
2024-02-18T23:35:22.521Z,7.01
2024-02-18T23:37:49.596Z,7.01
2024-02-18T23:40:16.169Z,7.02
2024-02-18T23:42:42.683Z,7.01
2024-02-18T23:45:09.314Z,7.02
2024-02-18T23:47:35.726Z,7.02
2024-02-18T23:50:02.180Z,7.03
2024-02-18T23:52:28.641Z,7.04
2024-02-18T23:54:55.218Z,7.04
2024-02-18T23:57:21.848Z,7.05
2024-02-18T23:59:48.238Z,7.05
